Time;durP1;ratioP1;P1;durP2;ratioP2;P2;SDS_P1;SDS_P2;PMS_P1;PMS_P2;Temp;Humidity;BMP_temperature;BMP_pressure;BME280_temperature;BME280_humidity;BME280_pressure;Samples;Min_cycle;Max_cycle;Signal;HPM_P1;HPM_P2
2023/05/08 00:02:04;;;;;;;0.80;0.80;;;16.60;99.90;;;;;;5053485;28;20219;-63
2023/05/08 00:04:31;;;;;;;0.90;0.90;;;16.60;99.90;;;;;;5053176;28;20718;-63
2023/05/08 00:06:59;;;;;;;0.90;0.90;;;16.70;99.90;;;;;;5053591;28;20230;-64
2023/05/08 00:09:26;;;;;;;0.80;0.80;;;16.70;99.90;;;;;;5052696;28;20218;-64
2023/05/08 00:11:53;;;;;;;0.90;0.90;;;16.80;99.90;;;;;;5053105;28;20270;-64
2023/05/08 00:14:20;;;;;;;0.70;0.70;;;16.80;99.90;;;;;;5053172;28;20206;-65
2023/05/08 00:16:47;;;;;;;0.90;0.90;;;16.90;99.90;;;;;;5053303;28;20208;-64
2023/05/08 00:19:13;;;;;;;0.73;0.73;;;16.90;99.90;;;;;;5052635;28;20208;-66
2023/05/08 00:21:41;;;;;;;0.80;0.80;;;16.80;99.90;;;;;;5053212;28;20232;-65
2023/05/08 00:24:09;;;;;;;0.80;0.80;;;16.80;99.90;;;;;;5053271;28;20208;-64
2023/05/08 00:26:36;;;;;;;0.80;0.80;;;16.80;99.90;;;;;;5053137;28;20211;-64
2023/05/08 00:29:02;;;;;;;0.80;0.80;;;16.70;99.90;;;;;;5052607;28;20693;-64
2023/05/08 00:31:29;;;;;;;0.90;0.90;;;16.70;99.90;;;;;;5053042;28;20230;-63
2023/05/08 00:33:56;;;;;;;0.60;0.60;;;16.70;99.90;;;;;;5053082;28;20226;-64
2023/05/08 00:36:23;;;;;;;1.00;1.00;;;16.70;99.90;;;;;;5053102;28;20662;-64
2023/05/08 00:38:50;;;;;;;0.80;0.80;;;16.70;99.90;;;;;;5053116;28;20212;-64
2023/05/08 00:41:18;;;;;;;0.80;0.80;;;16.80;99.90;;;;;;5051798;28;20243;-64
2023/05/08 00:43:45;;;;;;;0.98;0.98;;;16.80;99.90;;;;;;5052836;28;20200;-64
2023/05/08 00:46:12;;;;;;;0.90;0.90;;;16.80;99.90;;;;;;5052810;28;20228;-64
2023/05/08 00:48:40;;;;;;;0.75;0.75;;;16.70;99.90;;;;;;5053231;28;20238;-64
2023/05/08 00:51:10;;;;;;;0.80;0.80;;;16.70;99.90;;;;;;5054442;28;20230;-64
2023/05/08 00:53:41;;;;;;;0.80;0.80;;;16.70;99.90;;;;;;5053076;28;20710;-63
2023/05/08 00:56:11;;;;;;;0.80;0.80;;;16.60;99.90;;;;;;5052578;28;20222;-64
2023/05/08 00:58:40;;;;;;;1.02;1.02;;;16.70;99.90;;;;;;5052934;28;20214;-64
2023/05/08 01:01:07;;;;;;;0.90;0.90;;;16.60;99.90;;;;;;5051689;28;20725;-64
2023/05/08 01:03:36;;;;;;;0.80;0.80;;;16.60;99.90;;;;;;5052520;28;20206;-64
2023/05/08 01:06:03;;;;;;;0.80;0.80;;;16.80;99.90;;;;;;5051953;28;20220;-64
2023/05/08 01:08:31;;;;;;;0.88;0.88;;;16.70;99.90;;;;;;5052338;28;20204;-64
2023/05/08 01:11:06;;;;;;;1.17;0.88;;;16.70;99.90;;;;;;5051593;28;20630;-64
2023/05/08 01:13:47;;;;;;;0.80;0.80;;;16.70;99.90;;;;;;5052559;28;20218;-64
2023/05/08 01:16:16;;;;;;;1.48;0.90;;;16.70;99.90;;;;;;5052172;28;20202;-64
2023/05/08 01:18:50;;;;;;;0.80;0.80;;;16.70;99.90;;;;;;5051978;28;20207;-64
2023/05/08 01:21:25;;;;;;;0.75;0.75;;;16.70;99.90;;;;;;5051313;28;20226;-64
2023/05/08 01:24:08;;;;;;;0.80;0.80;;;16.70;99.90;;;;;;5051435;28;20207;-63
2023/05/08 01:27:11;;;;;;;0.70;0.70;;;16.70;99.90;;;;;;5052281;28;20227;-63
2023/05/08 01:30:16;;;;;;;0.80;0.80;;;16.80;99.90;;;;;;5051549;28;20211;-64
2023/05/08 01:32:50;;;;;;;0.90;0.90;;;16.90;99.90;;;;;;5051827;28;20213;-64
2023/05/08 01:35:21;;;;;;;0.67;0.67;;;16.90;99.90;;;;;;5051933;28;20207;-64
2023/05/08 01:37:53;;;;;;;0.70;0.70;;;17.00;99.90;;;;;;5052129;28;20212;-64
2023/05/08 01:40:28;;;;;;;0.80;0.80;;;17.00;99.90;;;;;;5050789;28;20698;-64
2023/05/08 01:43:06;;;;;;;0.80;0.80;;;17.00;99.90;;;;;;5051775;28;20223;-64
2023/05/08 01:45:38;;;;;;;0.70;0.70;;;17.00;99.90;;;;;;5051519;28;20735;-64
2023/05/08 01:48:13;;;;;;;1.27;0.70;;;17.00;99.90;;;;;;5046469;28;20208;-64
2023/05/08 01:50:45;;;;;;;0.60;0.60;;;17.00;99.90;;;;;;5050424;28;20748;-64
2023/05/08 01:53:20;;;;;;;0.80;0.80;;;17.00;99.90;;;;;;5051277;28;20213;-64
2023/05/08 01:55:50;;;;;;;0.90;0.90;;;17.00;99.90;;;;;;5046958;28;20658;-65
2023/05/08 01:58:17;;;;;;;0.80;0.80;;;17.00;99.90;;;;;;5041440;28;20699;-65
2023/05/08 02:00:46;;;;;;;0.70;0.70;;;17.00;99.90;;;;;;5042188;28;20227;-66
2023/05/08 02:03:15;;;;;;;0.70;0.70;;;17.00;99.90;;;;;;5034168;28;20212;-65
2023/05/08 02:05:43;;;;;;;1.17;0.90;;;17.00;99.90;;;;;;5041011;28;20220;-63
2023/05/08 02:08:14;;;;;;;0.70;0.70;;;17.00;99.90;;;;;;5051262;28;20270;-64
2023/05/08 02:10:43;;;;;;;0.77;0.77;;;17.00;99.90;;;;;;5049891;28;20717;-63
2023/05/08 02:13:11;;;;;;;1.02;1.00;;;17.00;99.90;;;;;;5051301;28;20203;-63
2023/05/08 02:15:39;;;;;;;0.90;0.90;;;16.90;99.90;;;;;;5051239;28;20207;-64
2023/05/08 02:18:08;;;;;;;0.90;0.90;;;16.90;99.90;;;;;;5051251;28;20208;-64
2023/05/08 02:20:37;;;;;;;0.90;0.90;;;16.70;99.90;;;;;;5050143;28;20615;-64
2023/05/08 02:23:04;;;;;;;0.82;0.82;;;16.70;99.90;;;;;;5051215;28;20681;-64
2023/05/08 02:25:32;;;;;;;0.88;0.88;;;16.70;99.90;;;;;;5051506;28;20323;-64
2023/05/08 02:27:59;;;;;;;0.75;0.75;;;16.70;99.90;;;;;;5058185;28;20200;-63
2023/05/08 02:30:27;;;;;;;0.77;0.77;;;16.70;99.90;;;;;;5051660;28;20564;-63
2023/05/08 02:32:55;;;;;;;0.90;0.90;;;16.70;99.90;;;;;;5051149;28;20203;-63
2023/05/08 02:35:24;;;;;;;1.05;1.00;;;16.80;99.90;;;;;;5050606;28;20196;-63
2023/05/08 02:37:55;;;;;;;0.90;0.90;;;16.80;99.90;;;;;;5051267;28;20208;-63
2023/05/08 02:40:24;;;;;;;0.80;0.80;;;16.70;99.90;;;;;;5050173;28;20210;-64
2023/05/08 02:42:51;;;;;;;0.80;0.80;;;16.70;99.90;;;;;;5051147;28;20888;-64
2023/05/08 02:45:18;;;;;;;0.90;0.90;;;16.70;99.90;;;;;;5050818;28;20234;-63
2023/05/08 02:47:52;;;;;;;0.82;0.82;;;16.70;99.90;;;;;;5050978;28;20207;-63
2023/05/08 02:50:23;;;;;;;0.80;0.80;;;16.80;99.90;;;;;;5050086;28;20239;-63
2023/05/08 02:52:55;;;;;;;0.90;0.90;;;16.80;99.90;;;;;;5051288;28;20250;-63
2023/05/08 02:55:33;;;;;;;0.90;0.90;;;16.80;99.90;;;;;;5051701;28;20278;-62
2023/05/08 02:58:10;;;;;;;0.80;0.80;;;16.70;99.90;;;;;;5051800;28;20428;-64
2023/05/08 03:00:43;;;;;;;0.90;0.90;;;16.80;99.90;;;;;;5050910;28;20285;-64
2023/05/08 03:03:17;;;;;;;0.70;0.70;;;16.70;99.90;;;;;;5051081;28;20299;-64
2023/05/08 03:05:51;;;;;;;0.70;0.70;;;16.80;99.90;;;;;;5050642;28;20226;-64
2023/05/08 03:08:24;;;;;;;0.60;0.60;;;16.80;99.90;;;;;;5050753;28;20215;-64
2023/05/08 03:10:54;;;;;;;0.80;0.80;;;16.80;99.90;;;;;;5049563;28;20234;-64
2023/05/08 03:13:21;;;;;;;0.80;0.80;;;16.90;99.90;;;;;;5050852;28;20203;-64
2023/05/08 03:15:55;;;;;;;1.08;0.98;;;16.80;99.90;;;;;;5050770;28;20211;-64
2023/05/08 03:18:26;;;;;;;0.88;0.88;;;16.80;99.90;;;;;;5050787;28;20257;-64
2023/05/08 03:20:56;;;;;;;0.77;0.77;;;16.80;99.90;;;;;;5049797;28;20597;-64
2023/05/08 03:23:26;;;;;;;0.70;0.70;;;16.80;99.90;;;;;;5050472;28;20219;-64
2023/05/08 03:25:53;;;;;;;0.70;0.70;;;16.80;99.90;;;;;;5050449;28;20340;-64
2023/05/08 03:28:22;;;;;;;1.60;0.80;;;16.80;99.90;;;;;;5050687;28;20208;-64
2023/05/08 03:30:50;;;;;;;0.80;0.80;;;16.70;99.90;;;;;;5049869;28;20231;-64
2023/05/08 03:33:18;;;;;;;0.68;0.68;;;16.70;99.90;;;;;;5050667;28;20206;-65
2023/05/08 03:35:46;;;;;;;1.65;0.80;;;16.80;99.90;;;;;;5050882;28;20219;-64
2023/05/08 03:38:13;;;;;;;0.90;0.80;;;16.80;99.90;;;;;;5050717;28;20214;-64
2023/05/08 03:40:42;;;;;;;2.85;0.80;;;16.70;99.90;;;;;;5049772;28;20224;-64
2023/05/08 03:43:11;;;;;;;0.90;0.90;;;16.70;99.90;;;;;;5050783;28;20590;-64
2023/05/08 03:45:39;;;;;;;0.75;0.75;;;16.70;99.90;;;;;;5050221;28;20777;-64
2023/05/08 03:48:08;;;;;;;0.85;0.85;;;16.70;99.90;;;;;;5052068;28;20207;-64
2023/05/08 03:50:36;;;;;;;0.73;0.73;;;16.70;99.90;;;;;;5052942;28;20232;-64
2023/05/08 03:53:04;;;;;;;0.65;0.65;;;16.60;99.90;;;;;;5053807;28;20219;-64
2023/05/08 03:55:31;;;;;;;0.70;0.70;;;16.60;99.90;;;;;;5054062;28;20230;-64
2023/05/08 03:58:04;;;;;;;0.60;0.60;;;16.70;99.90;;;;;;5053710;28;20211;-64
2023/05/08 04:00:43;;;;;;;1.05;0.80;;;16.70;99.90;;;;;;5052942;28;20228;-64
2023/05/08 04:03:24;;;;;;;0.80;0.80;;;16.70;99.90;;;;;;5045601;28;20210;-64
2023/05/08 04:06:00;;;;;;;0.70;0.70;;;16.60;99.90;;;;;;5046694;28;20230;-69
2023/05/08 04:08:29;;;;;;;0.80;0.80;;;16.60;99.90;;;;;;5054262;28;20658;-65
2023/05/08 04:11:10;;;;;;;0.80;0.80;;;16.70;99.90;;;;;;5052890;28;20235;-65
2023/05/08 04:13:45;;;;;;;0.80;0.80;;;16.70;99.90;;;;;;5054098;28;20207;-65
2023/05/08 04:16:17;;;;;;;0.73;0.73;;;16.70;99.90;;;;;;5054263;28;20203;-65
2023/05/08 04:18:47;;;;;;;0.77;0.77;;;16.70;99.90;;;;;;5054086;28;20584;-65
2023/05/08 04:21:20;;;;;;;0.80;0.80;;;16.60;99.90;;;;;;5053130;28;20718;-63
2023/05/08 04:23:51;;;;;;;0.90;0.90;;;16.80;99.90;;;;;;5053775;28;20214;-63
2023/05/08 04:26:19;;;;;;;0.70;0.70;;;17.10;99.90;;;;;;5054002;28;20665;-63
2023/05/08 04:28:48;;;;;;;1.30;0.98;;;17.50;99.90;;;;;;5053589;28;20239;-64
2023/05/08 04:31:16;;;;;;;0.70;0.70;;;17.80;99.90;;;;;;5052658;28;20254;-63
2023/05/08 04:33:44;;;;;;;0.75;0.75;;;18.00;99.90;;;;;;5052797;28;20212;-63
2023/05/08 04:36:12;;;;;;;0.82;0.80;;;18.10;99.90;;;;;;5052703;28;20204;-64
2023/05/08 04:38:39;;;;;;;1.45;0.73;;;18.10;99.90;;;;;;5053973;28;20215;-64
2023/05/08 04:41:07;;;;;;;0.80;0.80;;;17.80;99.90;;;;;;5042837;28;20286;-62
2023/05/08 04:43:34;;;;;;;0.88;0.88;;;17.50;99.90;;;;;;5032854;28;20230;-65
2023/05/08 04:46:03;;;;;;;0.80;0.80;;;17.40;99.90;;;;;;5032533;28;20691;-63
2023/05/08 04:48:32;;;;;;;0.80;0.80;;;17.30;99.90;;;;;;5032754;28;20204;-65
2023/05/08 04:50:58;;;;;;;0.65;0.65;;;17.20;99.90;;;;;;5031831;28;20224;-64
2023/05/08 04:53:25;;;;;;;0.70;0.70;;;17.20;99.90;;;;;;5032674;28;20207;-63
2023/05/08 04:55:52;;;;;;;0.70;0.70;;;17.20;99.90;;;;;;5032556;28;20588;-62
2023/05/08 04:58:19;;;;;;;0.77;0.77;;;17.20;99.90;;;;;;5032269;28;20244;-65
2023/05/08 05:00:46;;;;;;;0.88;0.88;;;17.10;99.90;;;;;;5030823;28;20233;-64
2023/05/08 05:03:14;;;;;;;0.80;0.80;;;17.20;99.90;;;;;;5032257;28;20212;-64
2023/05/08 05:05:41;;;;;;;0.80;0.80;;;17.20;99.90;;;;;;5032582;28;20205;-65
2023/05/08 05:08:08;;;;;;;0.90;0.90;;;17.20;99.90;;;;;;5032427;28;20672;-65
2023/05/08 05:10:35;;;;;;;0.80;0.80;;;17.10;99.90;;;;;;5034987;28;20228;-65
2023/05/08 05:13:01;;;;;;;0.73;0.73;;;17.20;99.90;;;;;;5052058;28;20750;-64
2023/05/08 05:15:28;;;;;;;0.70;0.70;;;17.20;99.90;;;;;;5052078;28;20231;-64
2023/05/08 05:17:55;;;;;;;0.90;0.90;;;17.20;99.90;;;;;;5052076;28;20207;-65
2023/05/08 05:20:23;;;;;;;0.80;0.80;;;17.30;99.90;;;;;;5051145;28;20208;-64
2023/05/08 05:22:50;;;;;;;0.70;0.70;;;17.30;99.90;;;;;;5044918;28;20207;-64
2023/05/08 05:25:17;;;;;;;1.07;0.80;;;17.40;99.90;;;;;;5040775;28;20208;-64
2023/05/08 05:27:44;;;;;;;0.70;0.70;;;17.50;99.90;;;;;;5036976;28;20288;-64
2023/05/08 05:30:11;;;;;;;1.70;0.87;;;17.60;99.90;;;;;;5030632;28;20219;-64
2023/05/08 05:32:38;;;;;;;0.60;0.60;;;17.60;99.90;;;;;;5032123;28;20213;-63
2023/05/08 05:35:06;;;;;;;0.80;0.80;;;17.70;99.90;;;;;;5032228;28;20197;-63
2023/05/08 05:37:34;;;;;;;0.73;0.73;;;17.70;99.90;;;;;;5032079;28;20201;-63
2023/05/08 05:40:01;;;;;;;0.73;0.73;;;17.80;99.90;;;;;;5031782;28;20636;-65
2023/05/08 05:42:28;;;;;;;0.80;0.80;;;17.80;99.90;;;;;;5030682;28;20778;-65
2023/05/08 05:44:55;;;;;;;0.70;0.70;;;17.80;99.90;;;;;;5029467;28;20637;-66
2023/05/08 05:47:22;;;;;;;0.53;0.53;;;17.90;99.90;;;;;;5032526;28;20224;-65
2023/05/08 05:49:49;;;;;;;0.80;0.80;;;17.90;99.90;;;;;;5029256;28;20204;-64
2023/05/08 05:52:16;;;;;;;0.70;0.70;;;18.00;99.90;;;;;;5030488;28;20694;-62
2023/05/08 05:54:45;;;;;;;0.60;0.60;;;18.00;99.90;;;;;;5031919;28;20201;-64
2023/05/08 05:57:13;;;;;;;0.82;0.82;;;18.00;99.90;;;;;;5036568;28;20192;-64
2023/05/08 05:59:39;;;;;;;0.67;0.67;;;18.00;99.90;;;;;;5043657;28;20212;-64
2023/05/08 06:02:09;;;;;;;0.90;0.90;;;18.00;99.90;;;;;;5043581;28;20226;-64
2023/05/08 06:04:35;;;;;;;0.80;0.80;;;18.00;99.90;;;;;;5051656;28;20230;-64
2023/05/08 06:07:02;;;;;;;0.75;0.75;;;18.00;99.90;;;;;;5051452;28;20243;-64
2023/05/08 06:09:29;;;;;;;0.80;0.80;;;18.10;99.90;;;;;;5051547;28;20207;-64
2023/05/08 06:11:57;;;;;;;0.80;0.80;;;18.10;99.90;;;;;;5050667;28;20236;-65
2023/05/08 06:14:24;;;;;;;0.80;0.80;;;18.10;99.90;;;;;;5050998;28;20634;-64
2023/05/08 06:16:51;;;;;;;0.80;0.80;;;18.10;99.90;;;;;;5051168;28;21131;-64
2023/05/08 06:19:19;;;;;;;0.80;0.80;;;18.10;99.90;;;;;;5050596;28;20228;-65
2023/05/08 06:21:45;;;;;;;0.83;0.83;;;18.10;99.90;;;;;;5051495;28;20224;-63
2023/05/08 06:24:12;;;;;;;0.77;0.77;;;18.10;99.90;;;;;;5051428;28;20207;-63
2023/05/08 06:26:39;;;;;;;0.80;0.80;;;18.00;99.90;;;;;;5050956;28;20888;-63
2023/05/08 06:29:07;;;;;;;0.80;0.80;;;17.90;99.90;;;;;;5051000;28;20204;-64
2023/05/08 06:31:34;;;;;;;0.90;0.90;;;17.90;99.90;;;;;;5051442;28;20223;-63
2023/05/08 06:34:01;;;;;;;0.70;0.70;;;17.90;99.90;;;;;;5051713;28;20200;-65
2023/05/08 06:36:27;;;;;;;0.90;0.90;;;17.90;99.90;;;;;;5051576;28;20200;-64
2023/05/08 06:38:54;;;;;;;0.80;0.80;;;17.80;99.90;;;;;;5051356;28;20686;-64
2023/05/08 06:41:21;;;;;;;0.80;0.80;;;17.80;99.90;;;;;;5049924;28;20227;-64
2023/05/08 06:43:48;;;;;;;0.93;0.90;;;17.80;99.90;;;;;;5050910;28;20200;-64
2023/05/08 06:46:16;;;;;;;1.20;1.10;;;17.80;99.90;;;;;;5050779;28;20245;-65
2023/05/08 06:48:43;;;;;;;1.23;1.13;;;17.80;99.90;;;;;;5050929;28;20208;-64
2023/05/08 06:51:10;;;;;;;0.90;0.90;;;17.90;99.90;;;;;;5050018;28;20224;-64
2023/05/08 06:53:37;;;;;;;0.80;0.80;;;17.90;99.90;;;;;;5050939;28;20231;-64
2023/05/08 06:56:04;;;;;;;1.70;1.00;;;17.90;99.90;;;;;;5050881;28;20207;-64
2023/05/08 06:58:31;;;;;;;1.00;1.00;;;17.90;99.90;;;;;;5050593;28;20254;-65
2023/05/08 07:01:00;;;;;;;1.67;0.90;;;18.00;99.90;;;;;;5050023;28;20224;-64
2023/05/08 07:03:28;;;;;;;1.00;1.00;;;17.90;99.90;;;;;;5050814;28;20258;-63
2023/05/08 07:05:55;;;;;;;0.90;0.90;;;17.90;99.90;;;;;;5050869;28;20214;-63
2023/05/08 07:08:22;;;;;;;1.43;1.30;;;17.90;99.90;;;;;;5051562;28;20661;-63
2023/05/08 07:10:49;;;;;;;2.50;1.83;;;18.00;99.90;;;;;;5049934;28;20615;-64
2023/05/08 07:13:20;;;;;;;1.10;1.10;;;18.00;99.90;;;;;;5050774;28;20204;-63
2023/05/08 07:15:47;;;;;;;1.10;1.10;;;18.00;99.90;;;;;;5051032;28;20573;-63
2023/05/08 07:18:14;;;;;;;1.20;1.07;;;18.10;99.90;;;;;;5051186;28;20196;-64
2023/05/08 07:20:42;;;;;;;1.10;1.10;;;18.10;99.90;;;;;;5049927;28;20224;-64
2023/05/08 07:23:09;;;;;;;0.85;0.85;;;18.20;99.90;;;;;;5053793;28;20208;-64
2023/05/08 07:25:36;;;;;;;2.17;1.10;;;18.40;99.90;;;;;;5054539;28;20203;-64
2023/05/08 07:28:03;;;;;;;0.90;0.90;;;18.50;99.90;;;;;;5054120;28;20943;-63
2023/05/08 07:30:30;;;;;;;0.70;0.70;;;18.70;99.90;;;;;;5053502;28;20226;-64
2023/05/08 07:32:57;;;;;;;0.80;0.80;;;18.80;99.90;;;;;;5054454;28;20215;-66
2023/05/08 07:35:24;;;;;;;0.87;0.87;;;19.00;99.90;;;;;;5054439;28;20230;-64
2023/05/08 07:37:52;;;;;;;1.00;1.00;;;19.10;99.90;;;;;;5054548;28;20200;-64
2023/05/08 07:40:19;;;;;;;0.70;0.70;;;19.10;99.90;;;;;;5053221;28;20204;-64
2023/05/08 07:42:46;;;;;;;1.00;1.00;;;19.10;99.90;;;;;;5054227;28;20204;-64
2023/05/08 07:45:13;;;;;;;0.85;0.85;;;19.10;99.90;;;;;;5054253;28;20302;-64
2023/05/08 07:47:49;;;;;;;1.00;1.00;;;19.10;99.90;;;;;;5054150;28;20590;-64
2023/05/08 07:50:16;;;;;;;1.83;1.73;;;19.20;99.90;;;;;;5053222;28;20207;-65
2023/05/08 07:52:43;;;;;;;0.70;0.70;;;19.20;99.90;;;;;;5054019;28;20207;-64
2023/05/08 07:55:11;;;;;;;0.90;0.90;;;19.30;99.90;;;;;;5053917;28;20208;-64
2023/05/08 07:57:38;;;;;;;0.77;0.77;;;19.20;99.90;;;;;;5053839;28;20694;-65
2023/05/08 08:00:10;;;;;;;0.80;0.80;;;19.20;99.90;;;;;;5052784;28;20724;-64
2023/05/08 08:02:37;;;;;;;0.87;0.87;;;19.10;99.90;;;;;;5053844;28;20265;-65
2023/05/08 08:05:04;;;;;;;0.80;0.80;;;19.20;99.90;;;;;;5053755;28;20204;-65
2023/05/08 08:07:31;;;;;;;1.00;1.00;;;19.30;99.90;;;;;;5053758;28;20231;-65
2023/05/08 08:09:58;;;;;;;0.70;0.70;;;19.40;99.90;;;;;;5052936;28;20276;-64
2023/05/08 08:12:27;;;;;;;0.70;0.70;;;19.40;99.90;;;;;;5053236;28;20228;-64
2023/05/08 08:14:54;;;;;;;0.75;0.75;;;19.50;99.90;;;;;;5053125;28;20203;-64
2023/05/08 08:17:21;;;;;;;0.80;0.80;;;19.50;99.90;;;;;;5053753;28;20206;-64
2023/05/08 08:19:48;;;;;;;0.80;0.80;;;19.40;99.90;;;;;;5052604;28;20215;-64
2023/05/08 08:22:15;;;;;;;0.77;0.77;;;19.50;99.90;;;;;;5053185;28;20710;-64
2023/05/08 08:24:42;;;;;;;0.80;0.80;;;19.60;99.90;;;;;;5053281;28;20280;-64
2023/05/08 08:27:09;;;;;;;0.60;0.60;;;19.70;99.90;;;;;;5053023;28;20230;-64
2023/05/08 08:29:37;;;;;;;1.05;1.05;;;19.80;99.90;;;;;;5052501;28;20231;-64
2023/05/08 08:32:04;;;;;;;0.90;0.90;;;19.90;99.90;;;;;;5053110;28;20714;-64
2023/05/08 08:34:33;;;;;;;0.90;0.90;;;19.90;99.90;;;;;;5053178;28;20208;-64
2023/05/08 08:37:00;;;;;;;0.80;0.80;;;20.00;99.90;;;;;;5053354;28;20207;-65
2023/05/08 08:39:27;;;;;;;0.70;0.70;;;20.00;99.90;;;;;;5052312;28;20204;-65
2023/05/08 08:41:53;;;;;;;0.70;0.70;;;20.00;99.90;;;;;;5052714;28;20238;-64
2023/05/08 08:44:20;;;;;;;0.70;0.70;;;19.90;99.90;;;;;;5052886;28;20641;-64
2023/05/08 08:46:51;;;;;;;0.67;0.67;;;20.00;99.90;;;;;;5052746;28;20243;-64
2023/05/08 08:49:19;;;;;;;0.77;0.77;;;20.00;99.90;;;;;;5052187;28;20298;-64
2023/05/08 08:51:51;;;;;;;0.70;0.70;;;19.90;99.90;;;;;;5053368;28;20650;-65
2023/05/08 08:54:23;;;;;;;0.80;0.80;;;19.90;99.90;;;;;;5053277;28;20671;-63
2023/05/08 08:56:52;;;;;;;1.00;1.00;;;19.90;99.90;;;;;;5052660;28;20208;-63
2023/05/08 08:59:19;;;;;;;1.00;1.00;;;20.00;99.90;;;;;;5052009;28;20204;-63
2023/05/08 09:01:53;;;;;;;1.00;1.00;;;20.00;99.90;;;;;;5052235;28;20227;-64
2023/05/08 09:04:20;;;;;;;1.00;1.00;;;19.90;99.90;;;;;;5052370;28;20226;-63
2023/05/08 09:06:49;;;;;;;1.10;1.10;;;19.90;99.90;;;;;;5052407;28;20214;-63
2023/05/08 09:09:16;;;;;;;1.10;1.10;;;19.80;99.90;;;;;;5051710;28;20694;-63
2023/05/08 09:11:45;;;;;;;1.20;1.20;;;19.80;99.90;;;;;;5052221;28;20239;-63
2023/05/08 09:14:12;;;;;;;1.60;1.50;;;19.80;99.90;;;;;;5052624;28;20204;-63
2023/05/08 09:16:39;;;;;;;1.77;1.40;;;19.80;99.90;;;;;;5057379;28;20206;-63
2023/05/08 09:19:08;;;;;;;1.33;1.33;;;19.70;99.90;;;;;;5051998;28;20196;-63
2023/05/08 09:21:35;;;;;;;1.40;1.40;;;19.60;99.90;;;;;;5051993;28;20259;-64
2023/05/08 09:24:03;;;;;;;1.20;1.20;;;19.60;99.90;;;;;;5052931;28;20667;-63
2023/05/08 09:26:32;;;;;;;1.20;1.20;;;19.60;99.90;;;;;;5052105;28;20208;-64
2023/05/08 09:29:10;;;;;;;1.33;1.27;;;19.70;99.90;;;;;;5052134;28;20341;-64
2023/05/08 09:31:39;;;;;;;1.30;1.30;;;19.80;99.90;;;;;;5051990;28;20223;-63
2023/05/08 09:34:07;;;;;;;1.20;1.20;;;19.90;99.90;;;;;;5051916;28;20204;-64
2023/05/08 09:36:34;;;;;;;1.25;1.25;;;19.90;99.90;;;;;;5052156;28;20226;-63
2023/05/08 09:39:01;;;;;;;1.40;1.40;;;19.90;99.90;;;;;;5051736;28;20295;-64
2023/05/08 09:41:28;;;;;;;1.45;1.45;;;19.90;99.90;;;;;;5051181;28;20582;-65
2023/05/08 09:44:03;;;;;;;1.50;1.50;;;19.80;99.90;;;;;;5052126;28;20230;-64
2023/05/08 09:46:30;;;;;;;1.70;1.70;;;19.80;99.90;;;;;;5051098;28;20208;-65
2023/05/08 09:48:59;;;;;;;1.50;1.50;;;19.60;99.90;;;;;;5051912;28;20773;-65
2023/05/08 09:51:31;;;;;;;1.30;1.30;;;19.50;99.90;;;;;;5052656;28;20228;-65
2023/05/08 09:54:02;;;;;;;1.50;1.50;;;19.50;99.90;;;;;;5052262;28;20226;-65
2023/05/08 09:56:34;;;;;;;1.40;1.40;;;19.50;99.90;;;;;;5051789;28;20291;-64
2023/05/08 09:59:03;;;;;;;2.20;2.10;;;19.50;99.90;;;;;;5051940;28;20842;-65
2023/05/08 10:01:32;;;;;;;1.90;1.80;;;19.50;99.90;;;;;;5051509;28;20272;-65
2023/05/08 10:04:00;;;;;;;1.60;1.60;;;19.50;99.90;;;;;;5052114;28;20230;-64
2023/05/08 10:06:29;;;;;;;1.43;1.43;;;19.50;99.90;;;;;;5052777;28;20204;-64
2023/05/08 10:09:11;;;;;;;1.90;1.80;;;19.70;99.90;;;;;;5052185;28;20601;-64
2023/05/08 10:11:39;;;;;;;1.67;1.57;;;19.80;99.90;;;;;;5049537;28;20232;-65
2023/05/08 10:14:06;;;;;;;1.50;1.40;;;19.80;99.90;;;;;;5052207;28;20261;-65
2023/05/08 10:16:41;;;;;;;1.90;1.80;;;19.80;99.90;;;;;;5051686;28;20208;-65
2023/05/08 10:19:14;;;;;;;1.40;1.40;;;19.80;99.90;;;;;;5051211;28;20266;-65
2023/05/08 10:21:46;;;;;;;1.40;1.40;;;19.80;99.90;;;;;;5051290;28;20231;-65
2023/05/08 10:24:16;;;;;;;1.57;1.47;;;19.90;99.90;;;;;;5051865;28;20200;-64
2023/05/08 10:26:48;;;;;;;1.52;1.52;;;20.00;99.90;;;;;;5051967;28;20211;-64
2023/05/08 10:29:21;;;;;;;1.63;1.60;;;20.00;99.90;;;;;;5051146;28;20204;-65
2023/05/08 10:31:53;;;;;;;1.40;1.40;;;20.10;99.90;;;;;;5052280;28;20231;-64
2023/05/08 10:34:22;;;;;;;1.33;1.33;;;20.10;99.90;;;;;;5050871;28;20298;-64
2023/05/08 10:36:52;;;;;;;1.30;1.30;;;20.00;99.90;;;;;;5050909;28;20232;-64
2023/05/08 10:39:20;;;;;;;1.30;1.30;;;20.00;99.90;;;;;;5051071;28;20200;-64
2023/05/08 10:41:48;;;;;;;1.40;1.40;;;20.10;99.90;;;;;;5050597;28;20315;-64
2023/05/08 10:44:16;;;;;;;1.40;1.40;;;20.10;99.90;;;;;;5050792;28;20207;-65
2023/05/08 10:46:51;;;;;;;1.30;1.30;;;20.20;99.90;;;;;;5050639;28;20702;-65
2023/05/08 10:49:23;;;;;;;1.37;1.37;;;20.30;99.90;;;;;;5050128;28;20261;-65
2023/05/08 10:51:59;;;;;;;1.20;1.20;;;20.40;99.90;;;;;;5050638;28;20715;-65
2023/05/08 10:54:35;;;;;;;1.38;1.30;;;20.50;99.90;;;;;;5051209;28;20212;-64
2023/05/08 10:57:09;;;;;;;1.40;1.30;;;20.50;99.90;;;;;;5053433;28;20207;-64
2023/05/08 10:59:37;;;;;;;1.30;1.30;;;20.60;99.90;;;;;;5057174;28;20282;-64
2023/05/08 11:02:05;;;;;;;1.07;1.07;;;20.50;99.90;;;;;;5056143;28;20223;-65
2023/05/08 11:04:32;;;;;;;1.10;1.10;;;20.60;99.90;;;;;;5055262;28;20204;-66
2023/05/08 11:07:00;;;;;;;1.00;1.00;;;20.60;99.90;;;;;;5054738;28;20212;-65
2023/05/08 11:09:29;;;;;;;0.90;0.90;;;20.70;99.90;;;;;;5053992;28;20684;-66
2023/05/08 11:12:07;;;;;;;0.90;0.90;;;20.70;99.90;;;;;;5053980;28;20231;-68
2023/05/08 11:14:36;;;;;;;0.60;0.60;;;20.70;99.90;;;;;;5054833;28;20290;-66
2023/05/08 11:17:05;;;;;;;1.00;1.00;;;21.00;99.90;;;;;;5054498;28;20204;-65
2023/05/08 11:19:32;;;;;;;1.10;1.10;;;21.60;99.90;;;;;;5053811;28;20200;-66
2023/05/08 11:22:24;;;;;;;0.90;0.90;;;21.70;99.90;;;;;;5054445;28;20227;-63
2023/05/08 11:24:55;;;;;;;1.10;1.10;;;22.20;99.90;;;;;;5055394;28;20184;-66
2023/05/08 11:27:41;;;;;;;1.13;1.13;;;22.60;99.90;;;;;;5055254;28;20689;-64
2023/05/08 11:30:23;;;;;;;1.02;1.02;;;23.00;99.90;;;;;;5054008;28;20210;-64
2023/05/08 11:32:57;;;;;;;1.00;1.00;;;22.70;99.90;;;;;;5054278;28;20298;-65
2023/05/08 11:35:56;;;;;;;0.90;0.90;;;22.50;99.90;;;;;;5054810;28;20203;-67
2023/05/08 11:38:30;;;;;;;0.77;0.77;;;22.30;99.90;;;;;;5054625;28;20184;-66
2023/05/08 11:41:05;;;;;;;0.70;0.70;;;22.20;99.90;;;;;;5054635;28;20231;-66
2023/05/08 11:43:56;;;;;;;0.60;0.60;;;21.70;99.90;;;;;;5055067;28;20187;-66
2023/05/08 11:46:23;;;;;;;0.90;0.90;;;21.60;99.90;;;;;;5054591;28;20192;-66
2023/05/08 11:49:00;;;;;;;1.00;1.00;;;21.70;99.90;;;;;;5054355;28;20310;-67
2023/05/08 11:51:31;;;;;;;0.80;0.80;;;21.50;99.90;;;;;;5054162;28;20706;-66
2023/05/08 11:54:00;;;;;;;0.80;0.80;;;21.50;99.90;;;;;;5055556;28;20200;-67
2023/05/08 11:56:27;;;;;;;2.20;1.00;;;21.40;99.90;;;;;;5054600;28;20200;-65
2023/05/08 11:59:03;;;;;;;0.80;0.80;;;21.30;99.90;;;;;;5053737;28;20196;-65
2023/05/08 12:01:31;;;;;;;0.87;0.87;;;21.30;99.90;;;;;;5054855;28;20223;-64
2023/05/08 12:04:02;;;;;;;0.77;0.77;;;21.30;99.90;;;;;;5054446;28;20740;-67
2023/05/08 12:06:30;;;;;;;0.60;0.60;;;21.30;99.90;;;;;;5054355;28;20204;-65
2023/05/08 12:08:57;;;;;;;0.80;0.80;;;21.20;99.90;;;;;;5053426;28;20323;-66
2023/05/08 12:11:26;;;;;;;2.00;0.80;;;21.30;99.90;;;;;;5053644;28;20238;-66
2023/05/08 12:13:53;;;;;;;0.70;0.70;;;21.40;99.90;;;;;;5053917;28;20203;-66
2023/05/08 12:16:23;;;;;;;0.70;0.70;;;21.60;99.90;;;;;;5054115;28;20204;-66
2023/05/08 12:18:50;;;;;;;0.65;0.65;;;21.80;99.90;;;;;;5053728;28;20200;-66
2023/05/08 12:21:17;;;;;;;0.70;0.70;;;22.10;99.90;;;;;;5053625;28;20232;-66
2023/05/08 12:23:44;;;;;;;0.80;0.80;;;22.20;99.90;;;;;;5053691;28;20578;-66
2023/05/08 12:26:11;;;;;;;0.60;0.60;;;22.20;99.90;;;;;;5053756;28;20188;-66
2023/05/08 12:28:40;;;;;;;0.55;0.55;;;22.30;99.90;;;;;;5053685;28;20253;-66
2023/05/08 12:31:07;;;;;;;0.65;0.65;;;22.40;99.90;;;;;;5053128;28;20278;-66
2023/05/08 12:33:34;;;;;;;0.80;0.80;;;22.50;99.90;;;;;;5053433;28;20341;-67
2023/05/08 12:36:01;;;;;;;0.80;0.80;;;22.60;99.90;;;;;;5053766;28;20214;-66
2023/05/08 12:38:28;;;;;;;0.77;0.77;;;22.70;99.90;;;;;;5053348;28;20200;-66
2023/05/08 12:40:55;;;;;;;0.90;0.90;;;22.90;99.90;;;;;;5052990;28;20614;-67
2023/05/08 12:43:31;;;;;;;0.75;0.75;;;22.60;99.90;;;;;;5053566;28;20223;-67
2023/05/08 12:46:00;;;;;;;0.85;0.85;;;22.50;99.90;;;;;;5053234;28;20207;-67
2023/05/08 12:48:27;;;;;;;1.00;1.00;;;22.50;99.90;;;;;;5033946;28;20636;-67
2023/05/08 12:50:54;;;;;;;1.00;1.00;;;22.20;99.90;;;;;;5032939;28;20224;-67
2023/05/08 12:53:21;;;;;;;0.80;0.80;;;22.10;99.90;;;;;;5032717;28;20557;-67
2023/05/08 12:55:53;;;;;;;0.70;0.70;;;21.80;99.90;;;;;;5032405;28;20217;-67
2023/05/08 12:58:21;;;;;;;0.90;0.90;;;21.70;99.90;;;;;;5032627;28;20295;-66
2023/05/08 13:00:50;;;;;;;0.82;0.82;;;21.60;99.90;;;;;;5032101;28;20315;-67